Time;durP1;ratioP1;P1;durP2;ratioP2;P2;SDS_P1;SDS_P2;PMS_P1;PMS_P2;Temp;Humidity;BMP_temperature;BMP_pressure;BME280_temperature;BME280_humidity;BME280_pressure;Samples;Min_cycle;Max_cycle;Signal;HPM_P1;HPM_P2
2021/07/13 00:00:12;;;;;;;3.10;2.00;;;22.60;99.90;;;;;;5051814;28;20262;-69
2021/07/13 00:02:39;;;;;;;3.28;2.10;;;22.60;99.90;;;;;;5055271;28;20205;-69
2021/07/13 00:05:12;;;;;;;1.98;1.80;;;22.60;99.90;;;;;;5056421;28;20680;-69
2021/07/13 00:07:41;;;;;;;4.55;2.20;;;22.60;99.90;;;;;;5054803;28;20212;-69
2021/07/13 00:10:09;;;;;;;3.33;1.60;;;22.60;99.90;;;;;;5054226;28;20237;-69
2021/07/13 00:12:37;;;;;;;1.83;1.63;;;22.60;99.90;;;;;;5053207;28;20209;-69
2021/07/13 00:15:07;;;;;;;2.55;1.83;;;22.60;99.90;;;;;;5051957;28;20225;-69
2021/07/13 00:17:34;;;;;;;3.08;1.90;;;22.60;99.90;;;;;;5050707;28;20201;-69
2021/07/13 00:20:01;;;;;;;1.50;1.40;;;22.60;99.90;;;;;;5050036;28;20196;-68
2021/07/13 00:22:28;;;;;;;3.45;1.50;;;22.60;99.90;;;;;;5062562;28;20208;-69
2021/07/13 00:24:56;;;;;;;1.80;1.70;;;22.60;99.90;;;;;;5068271;28;20224;-69
2021/07/13 00:27:23;;;;;;;1.60;1.50;;;22.50;99.90;;;;;;5057407;28;20289;-69
2021/07/13 00:29:50;;;;;;;2.55;1.65;;;22.50;99.90;;;;;;5084163;28;20204;-69
2021/07/13 00:32:17;;;;;;;1.67;1.50;;;22.50;99.90;;;;;;5061656;28;20749;-69
2021/07/13 00:34:44;;;;;;;3.85;2.03;;;22.50;99.90;;;;;;5060507;28;20195;-68
2021/07/13 00:37:11;;;;;;;1.90;1.80;;;22.50;99.90;;;;;;5053759;28;20224;-69
2021/07/13 00:39:38;;;;;;;2.50;2.40;;;22.50;99.90;;;;;;5068204;28;20280;-69
2021/07/13 00:42:12;;;;;;;3.95;2.17;;;22.50;99.90;;;;;;5068069;28;20197;-69
2021/07/13 00:44:41;;;;;;;3.40;1.95;;;22.50;99.90;;;;;;5055432;28;20258;-69
2021/07/13 00:47:08;;;;;;;2.58;1.83;;;22.50;99.90;;;;;;5066376;28;20660;-68
2021/07/13 00:49:36;;;;;;;2.50;2.20;;;22.50;99.90;;;;;;5067222;28;20189;-69
2021/07/13 00:52:03;;;;;;;3.05;2.00;;;22.50;99.90;;;;;;5067765;28;20199;-69
2021/07/13 00:54:31;;;;;;;2.13;1.98;;;22.50;99.90;;;;;;5100257;28;20205;-69
2021/07/13 00:56:58;;;;;;;1.98;1.88;;;22.50;99.90;;;;;;5068514;28;20770;-69
2021/07/13 00:59:27;;;;;;;2.35;2.00;;;22.40;99.90;;;;;;5056581;28;20214;-69
2021/07/13 01:01:54;;;;;;;2.22;2.13;;;22.40;99.90;;;;;;5058341;28;20211;-69
2021/07/13 01:04:21;;;;;;;2.50;2.22;;;22.40;99.90;;;;;;5095819;28;20285;-69
2021/07/13 01:06:57;;;;;;;3.03;2.83;;;22.40;99.90;;;;;;5068257;28;20207;-69
2021/07/13 01:09:38;;;;;;;2.60;2.40;;;22.40;99.90;;;;;;5055776;28;20225;-69
2021/07/13 01:12:17;;;;;;;2.40;2.20;;;22.40;99.90;;;;;;5066055;28;20232;-69
2021/07/13 01:14:52;;;;;;;3.92;2.83;;;22.40;99.90;;;;;;5067964;28;20200;-70
2021/07/13 01:17:26;;;;;;;3.47;2.90;;;22.40;99.90;;;;;;5064470;28;20201;-69
2021/07/13 01:20:33;;;;;;;3.15;2.95;;;22.30;99.90;;;;;;5061044;28;20210;-69
2021/07/13 01:23:12;;;;;;;2.80;2.60;;;22.30;99.90;;;;;;5086283;28;20581;-69
2021/07/13 01:25:43;;;;;;;2.78;2.58;;;22.30;99.90;;;;;;5081061;28;20202;-69
2021/07/13 01:28:17;;;;;;;2.75;2.53;;;22.30;99.90;;;;;;5062243;28;20208;-69
2021/07/13 01:30:48;;;;;;;2.42;2.22;;;22.30;99.90;;;;;;5064928;28;20287;-68
2021/07/13 01:33:20;;;;;;;3.38;2.03;;;22.30;99.90;;;;;;5064768;28;20668;-68
2021/07/13 01:35:52;;;;;;;2.00;1.90;;;22.30;99.90;;;;;;5070756;28;20262;-68
2021/07/13 01:38:21;;;;;;;3.58;2.30;;;22.30;99.90;;;;;;5103103;28;20232;-69
2021/07/13 01:40:52;;;;;;;2.10;2.00;;;22.30;99.90;;;;;;5062260;28;20204;-69
2021/07/13 01:43:22;;;;;;;2.00;1.90;;;22.30;99.90;;;;;;5071705;28;20197;-68
2021/07/13 01:45:50;;;;;;;2.05;1.85;;;22.30;99.90;;;;;;5071674;28;20202;-68
2021/07/13 01:48:18;;;;;;;2.00;1.90;;;22.30;99.90;;;;;;5070170;28;20196;-68
2021/07/13 01:50:49;;;;;;;1.95;1.85;;;22.30;99.90;;;;;;5058557;28;20477;-68
2021/07/13 01:53:17;;;;;;;3.05;2.15;;;22.30;99.90;;;;;;5069098;28;20510;-68
2021/07/13 01:55:46;;;;;;;2.15;2.05;;;22.30;99.90;;;;;;5070814;28;20209;-68
2021/07/13 01:58:14;;;;;;;1.92;1.70;;;22.30;99.90;;;;;;5103071;28;20232;-68
2021/07/13 02:00:45;;;;;;;1.85;1.75;;;22.20;99.90;;;;;;5064785;28;20212;-68
2021/07/13 02:03:14;;;;;;;1.80;1.70;;;22.20;99.90;;;;;;5094760;28;20213;-68
2021/07/13 02:05:42;;;;;;;1.92;1.83;;;22.30;99.90;;;;;;5068029;28;20202;-68
2021/07/13 02:08:10;;;;;;;1.83;1.73;;;22.20;99.90;;;;;;5071447;28;20288;-68
2021/07/13 02:10:40;;;;;;;1.90;1.73;;;22.10;99.90;;;;;;5069994;28;20237;-69
2021/07/13 02:13:10;;;;;;;1.90;1.80;;;22.20;99.90;;;;;;5070992;28;20201;-68
2021/07/13 02:15:38;;;;;;;1.52;1.52;;;22.10;99.90;;;;;;5080555;28;20226;-68
2021/07/13 02:18:06;;;;;;;1.98;1.80;;;22.10;99.90;;;;;;5050966;28;20197;-68
2021/07/13 02:20:34;;;;;;;3.47;2.10;;;22.10;99.90;;;;;;5052343;28;20224;-69
2021/07/13 02:23:01;;;;;;;2.03;1.92;;;22.10;99.90;;;;;;5064191;28;20186;-68
2021/07/13 02:25:28;;;;;;;2.08;1.83;;;22.10;99.90;;;;;;5065141;28;20198;-68
2021/07/13 02:28:04;;;;;;;2.17;1.88;;;22.10;99.90;;;;;;5059442;28;20572;-68
2021/07/13 02:30:34;;;;;;;3.15;2.33;;;22.10;99.90;;;;;;5063537;28;20200;-68
2021/07/13 02:33:04;;;;;;;2.20;2.10;;;22.10;99.90;;;;;;5101843;28;20205;-68
2021/07/13 02:35:38;;;;;;;2.20;2.00;;;22.00;99.90;;;;;;5070094;28;20314;-68
2021/07/13 02:38:07;;;;;;;1.95;1.80;;;22.00;99.90;;;;;;5066339;28;20224;-69
2021/07/13 02:40:35;;;;;;;1.90;1.80;;;22.10;99.90;;;;;;5062490;28;20192;-69
2021/07/13 02:43:02;;;;;;;2.17;2.05;;;22.00;99.90;;;;;;5070579;28;20534;-69
2021/07/13 02:45:30;;;;;;;2.20;2.00;;;22.00;99.90;;;;;;5102673;28;20227;-69
2021/07/13 02:47:58;;;;;;;2.00;1.90;;;22.00;99.90;;;;;;5069821;28;20305;-69
2021/07/13 02:50:26;;;;;;;2.58;1.98;;;22.00;99.90;;;;;;5102072;28;20205;-69
2021/07/13 02:52:55;;;;;;;2.13;2.03;;;22.00;99.90;;;;;;5102284;28;20198;-69
2021/07/13 02:55:24;;;;;;;2.05;1.95;;;22.00;99.90;;;;;;5102103;28;20206;-69
2021/07/13 02:57:54;;;;;;;1.98;1.88;;;22.00;99.90;;;;;;5070397;28;20189;-69
2021/07/13 03:00:22;;;;;;;1.90;1.80;;;22.00;99.90;;;;;;5063831;28;20202;-69
2021/07/13 03:02:51;;;;;;;1.92;1.65;;;22.00;99.90;;;;;;5068773;28;20194;-68
2021/07/13 03:05:20;;;;;;;1.70;1.60;;;22.00;99.90;;;;;;5069105;28;20364;-69
2021/07/13 03:07:48;;;;;;;2.17;2.08;;;22.00;99.90;;;;;;5069284;28;20285;-68
2021/07/13 03:10:19;;;;;;;1.90;1.80;;;22.00;99.90;;;;;;5098483;28;20333;-69
2021/07/13 03:12:47;;;;;;;1.88;1.70;;;22.00;99.90;;;;;;5097732;28;20233;-69
2021/07/13 03:15:14;;;;;;;3.17;1.70;;;21.90;99.90;;;;;;5063540;28;20194;-69
2021/07/13 03:17:41;;;;;;;1.92;1.83;;;22.00;99.90;;;;;;5066775;28;20228;-69
2021/07/13 03:20:09;;;;;;;2.13;1.90;;;22.00;99.90;;;;;;5069139;28;20197;-69
2021/07/13 03:22:41;;;;;;;2.03;1.90;;;22.00;99.90;;;;;;5061190;28;20198;-68
2021/07/13 03:25:10;;;;;;;1.80;1.70;;;22.00;99.90;;;;;;5061573;28;20205;-68
2021/07/13 03:27:38;;;;;;;2.00;1.90;;;22.00;99.90;;;;;;5070455;28;20656;-69
2021/07/13 03:30:07;;;;;;;3.00;2.03;;;22.00;99.90;;;;;;5069284;28;20227;-69
2021/07/13 03:32:36;;;;;;;1.88;1.77;;;22.10;99.90;;;;;;5062521;28;20197;-69
2021/07/13 03:35:04;;;;;;;1.70;1.60;;;22.10;99.90;;;;;;5081128;28;20213;-68
2021/07/13 03:37:32;;;;;;;2.20;1.92;;;22.10;99.90;;;;;;5059223;28;20219;-69
2021/07/13 03:39:59;;;;;;;2.10;2.00;;;22.10;99.90;;;;;;5067964;28;20616;-69
2021/07/13 03:42:26;;;;;;;2.00;1.90;;;22.10;99.90;;;;;;5059826;28;20198;-69
2021/07/13 03:44:55;;;;;;;2.03;1.92;;;22.10;99.90;;;;;;5069158;28;20204;-69
2021/07/13 03:47:23;;;;;;;2.08;1.98;;;22.10;99.90;;;;;;5059723;28;20224;-69
2021/07/13 03:49:51;;;;;;;2.10;2.00;;;22.20;99.90;;;;;;5068669;28;20193;-69
2021/07/13 03:52:19;;;;;;;1.85;1.75;;;22.20;99.90;;;;;;5058917;28;20274;-69
2021/07/13 03:54:46;;;;;;;1.90;1.80;;;22.20;99.90;;;;;;5067830;28;20197;-68
2021/07/13 03:57:14;;;;;;;1.90;1.80;;;22.20;99.90;;;;;;5068978;28;20243;-68
2021/07/13 03:59:41;;;;;;;1.80;1.70;;;22.30;99.90;;;;;;5056550;28;20407;-68
2021/07/13 04:02:09;;;;;;;1.65;1.58;;;22.30;99.90;;;;;;5067904;28;20198;-69
2021/07/13 04:04:36;;;;;;;1.95;1.85;;;22.40;99.90;;;;;;5056591;28;20615;-69
2021/07/13 04:07:05;;;;;;;1.73;1.60;;;22.40;99.90;;;;;;5067604;28;20216;-69
2021/07/13 04:09:32;;;;;;;2.00;1.60;;;22.40;99.90;;;;;;5057884;28;20675;-69
2021/07/13 04:11:59;;;;;;;1.90;1.80;;;22.50;99.90;;;;;;5065985;28;20307;-69
2021/07/13 04:14:26;;;;;;;1.90;1.80;;;22.50;99.90;;;;;;5059241;28;20213;-69
2021/07/13 04:16:53;;;;;;;2.10;2.00;;;22.50;99.90;;;;;;5067124;28;20232;-68
2021/07/13 04:19:22;;;;;;;2.13;2.03;;;22.60;99.90;;;;;;5049930;28;20194;-69
2021/07/13 04:21:49;;;;;;;2.80;2.60;;;22.60;99.90;;;;;;5057722;28;20476;-69
2021/07/13 04:24:16;;;;;;;2.70;2.50;;;22.60;99.90;;;;;;5067640;28;20292;-69
2021/07/13 04:26:43;;;;;;;2.22;2.05;;;22.60;99.90;;;;;;5065054;28;20676;-68
2021/07/13 04:29:10;;;;;;;2.50;2.30;;;22.70;99.90;;;;;;5060290;28;20527;-69
2021/07/13 04:31:37;;;;;;;3.47;2.00;;;22.70;99.90;;;;;;5061727;28;20726;-69
2021/07/13 04:34:09;;;;;;;2.58;1.77;;;22.70;99.90;;;;;;5063683;28;20276;-69
2021/07/13 04:36:39;;;;;;;1.98;1.88;;;22.80;99.90;;;;;;5066889;28;20223;-69
2021/07/13 04:39:07;;;;;;;1.90;1.80;;;22.90;99.90;;;;;;5060096;28;20208;-69
2021/07/13 04:41:34;;;;;;;2.10;2.00;;;22.90;99.90;;;;;;5060264;28;20201;-69
2021/07/13 04:44:02;;;;;;;2.00;1.90;;;22.90;99.90;;;;;;5065699;28;20415;-69
2021/07/13 04:46:30;;;;;;;2.38;2.22;;;22.90;99.90;;;;;;5094150;28;20204;-69
2021/07/13 04:48:57;;;;;;;3.63;2.00;;;22.90;99.90;;;;;;5067733;28;20596;-69
2021/07/13 04:51:25;;;;;;;1.98;1.70;;;23.00;99.90;;;;;;5065157;28;20284;-69
2021/07/13 04:53:54;;;;;;;2.13;1.95;;;23.10;99.90;;;;;;5058376;28;20634;-68
2021/07/13 04:56:21;;;;;;;2.58;1.80;;;23.10;99.90;;;;;;5082872;28;20193;-69
2021/07/13 04:58:48;;;;;;;1.83;1.73;;;23.10;99.90;;;;;;5052725;28;20228;-69
2021/07/13 05:01:15;;;;;;;1.80;1.70;;;23.20;99.90;;;;;;5058604;28;20210;-69
2021/07/13 05:03:42;;;;;;;1.75;1.63;;;23.30;99.90;;;;;;5053694;28;20615;-69
2021/07/13 05:06:09;;;;;;;1.85;1.75;;;23.30;99.90;;;;;;5056793;28;20208;-69
2021/07/13 05:08:36;;;;;;;2.17;2.00;;;23.40;99.90;;;;;;5057970;28;20645;-69
2021/07/13 05:11:06;;;;;;;3.15;2.63;;;23.40;99.90;;;;;;5058115;28;20247;-69
2021/07/13 05:13:33;;;;;;;2.45;2.28;;;23.50;99.90;;;;;;5054428;28;20715;-69
2021/07/13 05:16:00;;;;;;;6.60;2.38;;;23.50;99.90;;;;;;5084959;28;20289;-69
2021/07/13 05:18:28;;;;;;;3.38;2.40;;;23.60;99.90;;;;;;5061579;28;20271;-68
2021/07/13 05:20:58;;;;;;;2.40;2.20;;;23.60;99.90;;;;;;5087039;28;20240;-68
2021/07/13 05:23:25;;;;;;;2.25;2.05;;;23.70;99.90;;;;;;5071554;28;20227;-69
2021/07/13 05:25:53;;;;;;;2.00;1.90;;;23.80;99.90;;;;;;5058094;28;20215;-69
2021/07/13 05:28:21;;;;;;;1.90;1.80;;;23.80;99.90;;;;;;5071640;28;20399;-69
2021/07/13 05:30:48;;;;;;;2.30;2.20;;;23.90;99.90;;;;;;5065136;28;20219;-69
2021/07/13 05:33:16;;;;;;;2.42;2.22;;;23.90;99.90;;;;;;5057072;28;20208;-69
2021/07/13 05:35:43;;;;;;;2.83;2.60;;;24.00;99.90;;;;;;5063274;28;20205;-69
2021/07/13 05:38:11;;;;;;;2.35;2.25;;;24.00;99.90;;;;;;5063902;28;20225;-70
2021/07/13 05:40:38;;;;;;;2.15;1.98;;;24.00;99.90;;;;;;5061363;28;20193;-69
2021/07/13 05:43:05;;;;;;;2.30;2.10;;;24.10;99.90;;;;;;5083855;28;20210;-69
2021/07/13 05:45:34;;;;;;;2.33;2.13;;;24.10;99.90;;;;;;5059748;28;20198;-69
2021/07/13 05:48:01;;;;;;;2.25;2.15;;;24.30;99.90;;;;;;5061444;28;20200;-70
2021/07/13 05:50:28;;;;;;;2.30;2.10;;;24.40;99.90;;;;;;5059463;28;20189;-70
2021/07/13 05:52:57;;;;;;;2.20;2.10;;;24.50;99.90;;;;;;5088710;28;20209;-69
2021/07/13 05:55:25;;;;;;;2.33;2.22;;;24.60;99.90;;;;;;5056032;28;20620;-70
2021/07/13 05:57:52;;;;;;;3.05;1.80;;;24.70;99.90;;;;;;5058518;28;20271;-69
2021/07/13 06:00:19;;;;;;;2.50;2.30;;;24.80;99.90;;;;;;5060125;28;20193;-70
2021/07/13 06:02:47;;;;;;;2.05;1.95;;;25.00;99.90;;;;;;5055531;28;20194;-70
2021/07/13 06:05:15;;;;;;;2.10;2.00;;;25.10;99.90;;;;;;5052395;28;20195;-69
2021/07/13 06:07:43;;;;;;;3.28;2.20;;;25.20;99.90;;;;;;5054615;28;20560;-70
2021/07/13 06:10:11;;;;;;;2.42;2.33;;;25.30;99.90;;;;;;5060181;28;20523;-69
2021/07/13 06:12:38;;;;;;;2.40;2.30;;;25.40;99.90;;;;;;5068409;28;20216;-69
2021/07/13 06:15:06;;;;;;;2.15;2.05;;;25.70;99.90;;;;;;5070374;28;20193;-70
2021/07/13 06:17:33;;;;;;;3.47;2.03;;;27.00;99.90;;;;;;5065500;28;20225;-69
2021/07/13 06:20:02;;;;;;;2.40;2.30;;;28.90;99.90;;;;;;5068689;28;20193;-70
2021/07/13 06:22:29;;;;;;;2.60;2.40;;;30.60;99.90;;;;;;5088952;28;20684;-70
2021/07/13 06:24:56;;;;;;;2.17;2.08;;;32.00;99.90;;;;;;5060133;28;20288;-70
2021/07/13 06:27:23;;;;;;;3.25;2.33;;;33.30;99.90;;;;;;5063776;28;20193;-70
2021/07/13 06:29:50;;;;;;;4.38;2.10;;;34.50;99.90;;;;;;5059967;28;20273;-70
2021/07/13 06:32:17;;;;;;;2.33;2.13;;;35.40;99.40;;;;;;5065253;28;20629;-70
2021/07/13 06:34:44;;;;;;;2.42;2.33;;;36.30;96.80;;;;;;5063449;28;20300;-69
2021/07/13 06:37:13;;;;;;;2.50;2.40;;;37.20;94.10;;;;;;5062549;28;20251;-68
2021/07/13 06:39:40;;;;;;;3.92;2.38;;;37.80;91.40;;;;;;5060902;28;20208;-69
2021/07/13 06:42:07;;;;;;;2.88;2.58;;;38.40;88.70;;;;;;5062489;28;20283;-69
2021/07/13 06:44:34;;;;;;;3.03;2.83;;;39.00;84.10;;;;;;5064099;28;20671;-69
2021/07/13 06:47:01;;;;;;;2.67;2.58;;;39.70;80.50;;;;;;5058914;28;20308;-69
2021/07/13 06:49:28;;;;;;;2.60;2.50;;;40.30;76.80;;;;;;5058912;28;20197;-69
2021/07/13 06:51:55;;;;;;;2.38;2.28;;;40.70;72.90;;;;;;5058290;28;20190;-68
2021/07/13 06:54:24;;;;;;;2.85;2.72;;;41.00;70.50;;;;;;5060111;28;20688;-68
2021/07/13 06:56:51;;;;;;;2.70;2.60;;;41.30;68.10;;;;;;5062992;28;20201;-69
2021/07/13 06:59:18;;;;;;;2.72;2.63;;;41.50;65.10;;;;;;5065510;28;20580;-69
2021/07/13 07:01:45;;;;;;;2.38;2.28;;;41.60;63.90;;;;;;5060565;28;20188;-69
2021/07/13 07:04:12;;;;;;;3.00;2.80;;;41.80;62.80;;;;;;5055587;28;20205;-69
2021/07/13 07:06:39;;;;;;;2.50;2.40;;;41.80;61.40;;;;;;5052023;28;20215;-69
2021/07/13 07:09:06;;;;;;;2.67;2.58;;;41.80;60.50;;;;;;5062050;28;20205;-68
2021/07/13 07:11:34;;;;;;;2.97;2.80;;;41.80;60.20;;;;;;5056578;28;20221;-69
2021/07/13 07:14:01;;;;;;;2.95;2.85;;;41.80;59.50;;;;;;5057272;28;20293;-69
2021/07/13 07:16:28;;;;;;;2.65;2.50;;;41.90;58.90;;;;;;5058927;28;20207;-71
2021/07/13 07:18:55;;;;;;;2.70;2.58;;;42.20;57.90;;;;;;5058567;28;20700;-71
2021/07/13 07:21:23;;;;;;;2.58;2.47;;;42.60;57.10;;;;;;5060344;28;20201;-71
2021/07/13 07:23:50;;;;;;;2.58;2.38;;;42.90;56.30;;;;;;5062065;28;20284;-71
2021/07/13 07:26:17;;;;;;;2.92;2.67;;;43.10;55.50;;;;;;5061718;28;20200;-71
2021/07/13 07:28:45;;;;;;;3.20;3.10;;;42.90;55.00;;;;;;5062206;28;20664;-71
2021/07/13 07:31:14;;;;;;;2.92;2.72;;;41.90;55.00;;;;;;5061242;28;20199;-71
2021/07/13 07:33:41;;;;;;;3.33;3.13;;;40.70;56.40;;;;;;5059380;28;20262;-71
2021/07/13 07:36:09;;;;;;;2.65;2.55;;;39.50;58.00;;;;;;5055941;28;20235;-72
2021/07/13 07:38:36;;;;;;;2.58;2.47;;;38.40;59.60;;;;;;5056697;28;20702;-71
2021/07/13 07:41:03;;;;;;;2.85;2.75;;;37.40;61.30;;;;;;5098887;28;20230;-71
2021/07/13 07:43:30;;;;;;;2.97;2.88;;;36.60;62.80;;;;;;5063537;28;20192;-71
2021/07/13 07:45:58;;;;;;;2.80;2.70;;;35.80;64.10;;;;;;5057295;28;20190;-70
2021/07/13 07:48:26;;;;;;;2.88;2.70;;;35.20;65.40;;;;;;5059719;28;20200;-70
2021/07/13 07:50:53;;;;;;;2.95;2.80;;;34.70;66.60;;;;;;5093671;28;20296;-70
2021/07/13 07:53:20;;;;;;;2.95;2.80;;;34.20;67.50;;;;;;5056410;28;20212;-70
2021/07/13 07:55:47;;;;;;;2.50;2.40;;;34.00;68.20;;;;;;5058534;28;20325;-72
2021/07/13 07:58:14;;;;;;;3.33;3.13;;;33.60;68.90;;;;;;5054874;28;20220;-70
2021/07/13 08:00:41;;;;;;;3.63;3.42;;;33.40;69.40;;;;;;5065359;28;20211;-73
2021/07/13 08:03:11;;;;;;;4.13;3.00;;;33.20;70.00;;;;;;5050759;28;20233;-71
2021/07/13 08:05:40;;;;;;;3.17;2.97;;;33.00;70.40;;;;;;5062052;28;20292;-70
2021/07/13 08:08:07;;;;;;;4.15;3.85;;;32.90;70.60;;;;;;5059779;28;20182;-70
2021/07/13 08:10:34;;;;;;;3.70;3.45;;;32.80;70.60;;;;;;5069795;28;20593;-70
2021/07/13 08:13:02;;;;;;;3.40;3.20;;;32.70;70.40;;;;;;5059875;28;20185;-72
2021/07/13 08:15:29;;;;;;;3.85;3.65;;;32.60;70.70;;;;;;5057317;28;20206;-72
2021/07/13 08:17:58;;;;;;;3.40;3.17;;;32.50;70.80;;;;;;5056174;28;20226;-72
2021/07/13 08:20:26;;;;;;;2.97;2.88;;;32.50;71.30;;;;;;5052664;28;20189;-72
2021/07/13 08:22:53;;;;;;;3.03;2.85;;;32.40;71.70;;;;;;5063451;28;20189;-72
2021/07/13 08:25:21;;;;;;;3.13;2.92;;;32.30;72.20;;;;;;5059414;28;20669;-72
2021/07/13 08:27:49;;;;;;;3.08;2.97;;;32.20;72.30;;;;;;5088844;28;20641;-69
2021/07/13 08:30:17;;;;;;;2.60;2.50;;;32.20;72.70;;;;;;5056979;28;20213;-67
2021/07/13 08:32:44;;;;;;;2.58;2.47;;;32.10;72.90;;;;;;5059155;28;20189;-66
2021/07/13 08:35:12;;;;;;;2.60;2.50;;;32.20;72.90;;;;;;5061325;28;20287;-67
2021/07/13 08:37:41;;;;;;;2.65;2.50;;;32.30;72.90;;;;;;5058931;28;20223;-67
2021/07/13 08:40:10;;;;;;;2.75;2.65;;;32.40;72.70;;;;;;5058290;28;20288;-67
2021/07/13 08:42:39;;;;;;;3.20;3.00;;;32.50;72.80;;;;;;5058206;28;20197;-67
2021/07/13 08:45:08;;;;;;;3.50;3.30;;;32.50;72.00;;;;;;5060324;28;20691;-66
2021/07/13 08:47:37;;;;;;;3.22;3.03;;;32.60;71.30;;;;;;5057358;28;20315;-67
2021/07/13 08:50:06;;;;;;;3.65;3.45;;;32.70;71.60;;;;;;5063022;28;20538;-67
2021/07/13 08:52:34;;;;;;;3.53;3.33;;;32.80;71.50;;;;;;5062491;28;20197;-66
2021/07/13 08:55:05;;;;;;;3.45;3.25;;;32.90;71.60;;;;;;5060372;28;20197;-67
2021/07/13 08:57:32;;;;;;;3.88;3.67;;;33.00;71.30;;;;;;5054921;28;20208;-66
2021/07/13 08:59:59;;;;;;;3.38;3.20;;;33.00;71.20;;;;;;5059565;28;20283;-67
2021/07/13 09:02:26;;;;;;;3.90;3.70;;;33.00;71.50;;;;;;5060896;28;20704;-66
2021/07/13 09:04:53;;;;;;;3.47;3.38;;;33.10;71.20;;;;;;5056397;28;20284;-66
2021/07/13 09:07:20;;;;;;;3.47;3.28;;;33.10;71.50;;;;;;5083520;28;20189;-67
2021/07/13 09:09:52;;;;;;;3.25;3.05;;;33.20;71.50;;;;;;5062080;28;20358;-67
2021/07/13 09:12:22;;;;;;;3.10;2.90;;;33.10;71.50;;;;;;5086716;28;20208;-67
2021/07/13 09:14:56;;;;;;;3.60;3.40;;;33.10;71.60;;;;;;5056314;28;20197;-69
2021/07/13 09:17:40;;;;;;;3.53;3.35;;;33.10;71.40;;;;;;5083189;28;20201;-68
2021/07/13 09:20:21;;;;;;;3.85;3.65;;;33.20;71.00;;;;;;5053405;28;20205;-67
2021/07/13 09:22:58;;;;;;;3.67;3.47;;;33.30;70.30;;;;;;5059027;28;20245;-67
2021/07/13 09:25:31;;;;;;;3.80;3.25;;;33.50;69.00;;;;;;5048330;28;20569;-67
2021/07/13 09:28:14;;;;;;;3.80;3.50;;;33.60;69.20;;;;;;5052642;28;20193;-67
2021/07/13 09:30:43;;;;;;;3.20;3.10;;;33.70;69.40;;;;;;5055024;28;20665;-67
2021/07/13 09:33:15;;;;;;;2.65;2.55;;;33.80;68.90;;;;;;5056741;28;21237;-67
2021/07/13 09:36:05;;;;;;;2.97;2.88;;;33.90;68.60;;;;;;5058530;28;20220;-67
2021/07/13 09:38:33;;;;;;;3.10;3.00;;;34.10;68.50;;;;;;5057965;28;20225;-67
2021/07/13 09:41:10;;;;;;;2.97;2.88;;;34.20;67.20;;;;;;5060857;28;20288;-67
2021/07/13 09:43:45;;;;;;;2.70;2.60;;;34.30;66.80;;;;;;5058515;28;20572;-67
2021/07/13 09:46:26;;;;;;;2.70;2.60;;;34.30;67.10;;;;;;5092221;28;20262;-67
2021/07/13 09:49:08;;;;;;;2.50;2.40;;;34.20;67.20;;;;;;5058424;28;20193;-67
2021/07/13 09:51:35;;;;;;;2.60;2.50;;;34.20;67.20;;;;;;5056872;28;20227;-67
2021/07/13 09:54:03;;;;;;;2.80;2.50;;;34.20;67.70;;;;;;5064298;28;20505;-66
2021/07/13 09:56:39;;;;;;;2.92;2.83;;;34.30;66.30;;;;;;5059465;28;20217;-67
2021/07/13 09:59:07;;;;;;;2.90;2.80;;;34.30;65.90;;;;;;5059749;28;20224;-67
2021/07/13 10:01:35;;;;;;;2.72;2.63;;;34.20;65.70;;;;;;5066337;28;20196;-66
2021/07/13 10:04:02;;;;;;;3.20;3.00;;;34.40;65.40;;;;;;5062707;28;20223;-66
2021/07/13 10:06:31;;;;;;;3.22;2.90;;;34.40;65.30;;;;;;5060585;28;20283;-66
2021/07/13 10:09:00;;;;;;;3.45;3.25;;;34.60;65.20;;;;;;5052283;28;20201;-66
2021/07/13 10:11:29;;;;;;;3.72;3.53;;;34.70;65.40;;;;;;5063021;28;20639;-67
2021/07/13 10:13:58;;;;;;;3.72;3.53;;;34.80;65.60;;;;;;5060115;28;20200;-67
2021/07/13 10:16:27;;;;;;;3.72;3.53;;;34.90;65.70;;;;;;5055632;28;20201;-66
2021/07/13 10:18:55;;;;;;;3.95;3.75;;;35.00;65.90;;;;;;5091431;28;20310;-67
2021/07/13 10:21:22;;;;;;;3.97;3.70;;;35.00;66.00;;;;;;5062787;28;20193;-67
2021/07/13 10:23:49;;;;;;;5.20;4.30;;;35.20;66.00;;;;;;5059368;28;20201;-67
2021/07/13 10:26:42;;;;;;;4.60;4.15;;;35.20;65.80;;;;;;5067865;28;20200;-67
2021/07/13 10:29:37;;;;;;;4.35;4.10;;;35.30;65.90;;;;;;5090211;28;20201;-67
2021/07/13 10:32:08;;;;;;;4.95;4.60;;;35.20;66.10;;;;;;5061115;28;20219;-67
2021/07/13 10:34:48;;;;;;;4.47;4.28;;;35.00;66.50;;;;;;5061415;28;20240;-67
2021/07/13 10:37:29;;;;;;;3.97;3.78;;;34.90;66.90;;;;;;5060531;28;20261;-67
2021/07/13 10:39:58;;;;;;;5.13;4.70;;;34.90;67.20;;;;;;5059264;28;20220;-67
2021/07/13 10:42:45;;;;;;;4.95;4.63;;;34.90;67.50;;;;;;5057916;28;21174;-67
2021/07/13 10:45:14;;;;;;;5.30;4.78;;;34.70;67.60;;;;;;5058953;28;20327;-67
2021/07/13 10:48:00;;;;;;;4.75;4.47;;;34.60;67.90;;;;;;5057791;28;20196;-67
2021/07/13 10:50:53;;;;;;;5.10;4.65;;;34.50;68.20;;;;;;5059701;28;20285;-67
2021/07/13 10:53:25;;;;;;;4.70;4.40;;;34.40;68.30;;;;;;5060433;28;20251;-66
2021/07/13 10:55:58;;;;;;;5.28;4.85;;;34.40;68.60;;;;;;5063018;28;20579;-67
2021/07/13 10:58:30;;;;;;;3.88;3.67;;;34.30;68.90;;;;;;5066344;28;20220;-66
2021/07/13 11:01:22;;;;;;;5.03;4.53;;;34.30;69.30;;;;;;5096108;28;20219;-67
2021/07/13 11:03:59;;;;;;;4.82;4.53;;;34.30;69.60;;;;;;5037176;28;20603;-66
2021/07/13 11:07:05;;;;;;;4.55;3.92;;;34.20;69.80;;;;;;5038792;28;20588;-67
2021/07/13 11:09:38;;;;;;;4.70;4.50;;;34.20;69.90;;;;;;5026500;28;20300;-67
2021/07/13 11:12:18;;;;;;;4.63;4.32;;;34.20;70.00;;;;;;5031868;28;20237;-67
2021/07/13 11:14:56;;;;;;;4.40;4.20;;;34.10;69.90;;;;;;5021378;28;20612;-67
2021/07/13 11:17:25;;;;;;;5.57;5.20;;;34.20;70.30;;;;;;5014063;28;20213;-67
2021/07/13 11:20:00;;;;;;;6.03;5.50;;;34.10;70.20;;;;;;5037667;28;20847;-67
2021/07/13 11:22:29;;;;;;;6.32;5.85;;;34.00;70.00;;;;;;5037396;28;20625;-67
2021/07/13 11:24:56;;;;;;;6.40;5.90;;;34.00;70.10;;;;;;5037238;28;20767;-67
2021/07/13 11:27:23;;;;;;;6.15;5.60;;;33.90;69.90;;;;;;5021308;28;20212;-67
2021/07/13 11:29:53;;;;;;;5.50;5.10;;;33.80;70.20;;;;;;5021681;28;20284;-67
2021/07/13 11:32:20;;;;;;;5.22;4.93;;;33.80;70.30;;;;;;5030332;28;20220;-66
2021/07/13 11:34:47;;;;;;;6.45;5.80;;;33.70;70.40;;;;;;5021693;28;20205;-66
2021/07/13 11:37:17;;;;;;;6.78;6.18;;;33.60;70.50;;;;;;5016836;28;20286;-66
2021/07/13 11:39:45;;;;;;;10.30;6.35;;;33.50;70.30;;;;;;5027835;28;20780;-66
2021/07/13 11:42:14;;;;;;;5.82;5.43;;;33.30;70.10;;;;;;5054082;28;21103;-67
2021/07/13 11:44:42;;;;;;;5.70;5.32;;;33.20;70.30;;;;;;5056704;28;20591;-67
2021/07/13 11:47:11;;;;;;;6.45;5.88;;;33.00;70.60;;;;;;5059141;28;20194;-67
2021/07/13 11:49:38;;;;;;;6.93;5.35;;;33.00;70.90;;;;;;5059882;28;20284;-67
2021/07/13 11:52:06;;;;;;;5.13;4.82;;;33.10;70.90;;;;;;5061610;28;20193;-67
2021/07/13 11:54:36;;;;;;;5.78;5.38;;;33.60;70.60;;;;;;5060853;28;20197;-67
2021/07/13 11:57:05;;;;;;;6.97;5.72;;;34.10;69.90;;;;;;5060833;28;20197;-67
2021/07/13 11:59:34;;;;;;;6.40;5.90;;;34.40;68.90;;;;;;5058023;28;20247;-67
2021/07/13 12:02:02;;;;;;;5.63;5.22;;;34.80;68.20;;;;;;5061151;28;20777;-67
2021/07/13 12:04:32;;;;;;;5.00;4.68;;;35.00;67.40;;;;;;5083028;28;20228;-67
2021/07/13 12:07:00;;;;;;;5.78;5.38;;;35.10;67.10;;;;;;5059570;28;20211;-67
2021/07/13 12:09:29;;;;;;;5.38;5.07;;;35.30;66.80;;;;;;5059643;28;20197;-67
2021/07/13 12:12:00;;;;;;;5.65;5.25;;;35.40;66.70;;;;;;5090407;28;20232;-67
2021/07/13 12:14:28;;;;;;;5.30;4.90;;;35.40;66.20;;;;;;5058873;28;20272;-67
2021/07/13 12:16:57;;;;;;;7.90;5.25;;;35.30;66.10;;;;;;5061480;28;20216;-68
2021/07/13 12:19:27;;;;;;;5.20;4.90;;;35.20;65.90;;;;;;5060634;28;20216;-67
2021/07/13 12:21:57;;;;;;;5.13;4.82;;;35.20;66.00;;;;;;5063108;28;20207;-67
2021/07/13 12:24:30;;;;;;;6.13;5.72;;;35.20;66.10;;;;;;5059323;28;20201;-67
2021/07/13 12:27:01;;;;;;;5.65;5.30;;;35.00;65.90;;;;;;5055616;28;20731;-67
2021/07/13 12:29:38;;;;;;;5.00;4.70;;;34.90;66.00;;;;;;5061587;28;20592;-66
2021/07/13 12:32:08;;;;;;;5.13;4.72;;;34.80;66.30;;;;;;5061849;28;20204;-67
2021/07/13 12:34:41;;;;;;;5.60;4.70;;;34.70;66.50;;;;;;5055088;28;20280;-67
2021/07/13 12:37:14;;;;;;;5.20;4.82;;;34.60;66.60;;;;;;5059571;28;20234;-67
2021/07/13 12:39:43;;;;;;;5.47;5.13;;;34.40;66.10;;;;;;5061553;28;20225;-67
2021/07/13 12:42:16;;;;;;;5.82;5.43;;;34.20;66.20;;;;;;5086240;28;20565;-67
2021/07/13 12:44:49;;;;;;;4.53;4.22;;;33.90;66.30;;;;;;5057579;28;20626;-66
2021/07/13 12:47:31;;;;;;;4.72;4.30;;;33.70;66.60;;;;;;5090575;28;20683;-67
2021/07/13 12:50:07;;;;;;;8.75;4.50;;;33.60;67.00;;;;;;5058492;28;20211;-68
2021/07/13 12:52:36;;;;;;;5.78;5.28;;;33.30;67.10;;;;;;5064861;28;20291;-67
2021/07/13 12:55:06;;;;;;;5.93;5.43;;;33.10;67.40;;;;;;5061199;28;20193;-67
2021/07/13 12:57:37;;;;;;;6.40;5.85;;;32.90;67.70;;;;;;5057323;28;20680;-67
2021/07/13 13:00:15;;;;;;;5.63;5.22;;;32.70;67.60;;;;;;5062007;28;20224;-67